sensor_id;sensor_type;location;lat;lon;timestamp;pressure;altitude;pressure_sealevel;temperature
5571;BMP180;2808;51.240;6.794;2022-07-24T00:00:32;101491.00;;;20.00
5571;BMP180;2808;51.240;6.794;2022-07-24T00:03:00;101489.00;;;20.00
5571;BMP180;2808;51.240;6.794;2022-07-24T00:05:28;101491.00;;;20.00
5571;BMP180;2808;51.240;6.794;2022-07-24T00:08:01;101494.00;;;20.00
5571;BMP180;2808;51.240;6.794;2022-07-24T00:10:31;101493.00;;;20.00
5571;BMP180;2808;51.240;6.794;2022-07-24T00:12:58;101494.00;;;20.00
5571;BMP180;2808;51.240;6.794;2022-07-24T00:15:26;101479.00;;;20.00
5571;BMP180;2808;51.240;6.794;2022-07-24T00:17:53;101485.00;;;20.00
5571;BMP180;2808;51.240;6.794;2022-07-24T00:20:21;101485.00;;;20.00
5571;BMP180;2808;51.240;6.794;2022-07-24T00:22:48;101484.00;;;20.00
5571;BMP180;2808;51.240;6.794;2022-07-24T00:25:16;101469.00;;;19.90
5571;BMP180;2808;51.240;6.794;2022-07-24T00:27:45;101480.00;;;19.90
5571;BMP180;2808;51.240;6.794;2022-07-24T00:30:13;101474.00;;;19.80
5571;BMP180;2808;51.240;6.794;2022-07-24T00:32:43;101477.00;;;19.80
5571;BMP180;2808;51.240;6.794;2022-07-24T00:35:10;101476.00;;;19.80
5571;BMP180;2808;51.240;6.794;2022-07-24T00:37:39;101474.00;;;19.80
5571;BMP180;2808;51.240;6.794;2022-07-24T00:40:07;101478.00;;;19.80
5571;BMP180;2808;51.240;6.794;2022-07-24T00:42:34;101474.00;;;19.70
5571;BMP180;2808;51.240;6.794;2022-07-24T00:45:04;101481.00;;;19.70
5571;BMP180;2808;51.240;6.794;2022-07-24T00:47:31;101482.00;;;19.60
5571;BMP180;2808;51.240;6.794;2022-07-24T00:49:59;101476.00;;;19.60
5571;BMP180;2808;51.240;6.794;2022-07-24T00:52:28;101476.00;;;19.70
5571;BMP180;2808;51.240;6.794;2022-07-24T00:54:57;101474.00;;;19.70
5571;BMP180;2808;51.240;6.794;2022-07-24T00:57:24;101481.00;;;19.60
5571;BMP180;2808;51.240;6.794;2022-07-24T00:59:55;101487.00;;;19.60
5571;BMP180;2808;51.240;6.794;2022-07-24T01:02:26;101483.00;;;19.60
5571;BMP180;2808;51.240;6.794;2022-07-24T01:04:54;101486.00;;;19.60
5571;BMP180;2808;51.240;6.794;2022-07-24T01:07:21;101484.00;;;19.60
5571;BMP180;2808;51.240;6.794;2022-07-24T01:09:49;101483.00;;;19.60
5571;BMP180;2808;51.240;6.794;2022-07-24T01:12:17;101482.00;;;19.60
5571;BMP180;2808;51.240;6.794;2022-07-24T01:14:45;101480.00;;;19.60
5571;BMP180;2808;51.240;6.794;2022-07-24T01:17:16;101483.00;;;19.50
5571;BMP180;2808;51.240;6.794;2022-07-24T01:19:47;101478.00;;;19.40
5571;BMP180;2808;51.240;6.794;2022-07-24T01:22:16;101476.00;;;19.40
5571;BMP180;2808;51.240;6.794;2022-07-24T01:24:44;101476.00;;;19.40
5571;BMP180;2808;51.240;6.794;2022-07-24T01:27:11;101484.00;;;19.40
5571;BMP180;2808;51.240;6.794;2022-07-24T01:29:40;101474.00;;;19.40
5571;BMP180;2808;51.240;6.794;2022-07-24T01:32:07;101471.00;;;19.40
5571;BMP180;2808;51.240;6.794;2022-07-24T01:34:35;101467.00;;;19.40
5571;BMP180;2808;51.240;6.794;2022-07-24T01:37:02;101472.00;;;19.40
5571;BMP180;2808;51.240;6.794;2022-07-24T01:39:31;101481.00;;;19.40
5571;BMP180;2808;51.240;6.794;2022-07-24T01:41:59;101467.00;;;19.40
5571;BMP180;2808;51.240;6.794;2022-07-24T01:44:26;101476.00;;;19.40
5571;BMP180;2808;51.240;6.794;2022-07-24T01:46:56;101470.00;;;19.40
5571;BMP180;2808;51.240;6.794;2022-07-24T01:49:26;101457.00;;;19.40
5571;BMP180;2808;51.240;6.794;2022-07-24T01:51:54;101456.00;;;19.30
5571;BMP180;2808;51.240;6.794;2022-07-24T01:54:21;101460.00;;;19.30
5571;BMP180;2808;51.240;6.794;2022-07-24T01:56:50;101456.00;;;19.30
5571;BMP180;2808;51.240;6.794;2022-07-24T01:59:19;101452.00;;;19.30
5571;BMP180;2808;51.240;6.794;2022-07-24T02:01:47;101454.00;;;19.30
5571;BMP180;2808;51.240;6.794;2022-07-24T02:04:15;101450.00;;;19.30
5571;BMP180;2808;51.240;6.794;2022-07-24T02:06:42;101445.00;;;19.20
5571;BMP180;2808;51.240;6.794;2022-07-24T02:09:10;101458.00;;;19.20
5571;BMP180;2808;51.240;6.794;2022-07-24T02:11:37;101460.00;;;19.10
5571;BMP180;2808;51.240;6.794;2022-07-24T02:14:06;101460.00;;;19.10
5571;BMP180;2808;51.240;6.794;2022-07-24T02:16:34;101461.00;;;19.10
5571;BMP180;2808;51.240;6.794;2022-07-24T02:19:01;101450.00;;;19.00
5571;BMP180;2808;51.240;6.794;2022-07-24T02:21:29;101459.00;;;18.90
5571;BMP180;2808;51.240;6.794;2022-07-24T02:23:56;101454.00;;;18.90
5571;BMP180;2808;51.240;6.794;2022-07-24T02:26:24;101452.00;;;18.90
5571;BMP180;2808;51.240;6.794;2022-07-24T02:28:54;101449.00;;;18.90
5571;BMP180;2808;51.240;6.794;2022-07-24T02:31:25;101447.00;;;18.90
5571;BMP180;2808;51.240;6.794;2022-07-24T02:33:54;101453.00;;;18.80
5571;BMP180;2808;51.240;6.794;2022-07-24T02:36:26;101443.00;;;18.80
5571;BMP180;2808;51.240;6.794;2022-07-24T02:38:55;101436.00;;;18.80
5571;BMP180;2808;51.240;6.794;2022-07-24T02:41:25;101439.00;;;18.80
5571;BMP180;2808;51.240;6.794;2022-07-24T02:43:52;101442.00;;;18.70
5571;BMP180;2808;51.240;6.794;2022-07-24T02:46:21;101446.00;;;18.70
5571;BMP180;2808;51.240;6.794;2022-07-24T02:48:50;101437.00;;;18.70
5571;BMP180;2808;51.240;6.794;2022-07-24T02:51:20;101435.00;;;18.60
5571;BMP180;2808;51.240;6.794;2022-07-24T02:53:48;101440.00;;;18.70
5571;BMP180;2808;51.240;6.794;2022-07-24T02:56:15;101434.00;;;18.60
5571;BMP180;2808;51.240;6.794;2022-07-24T02:58:45;101433.00;;;18.60
5571;BMP180;2808;51.240;6.794;2022-07-24T03:01:12;101436.00;;;18.60
5571;BMP180;2808;51.240;6.794;2022-07-24T03:03:40;101442.00;;;18.60
5571;BMP180;2808;51.240;6.794;2022-07-24T03:06:09;101434.00;;;18.60
5571;BMP180;2808;51.240;6.794;2022-07-24T03:08:37;101426.00;;;18.50
5571;BMP180;2808;51.240;6.794;2022-07-24T03:11:05;101432.00;;;18.50
5571;BMP180;2808;51.240;6.794;2022-07-24T03:13:32;101431.00;;;18.40
5571;BMP180;2808;51.240;6.794;2022-07-24T03:16:00;101430.00;;;18.40
5571;BMP180;2808;51.240;6.794;2022-07-24T03:18:29;101433.00;;;18.40
5571;BMP180;2808;51.240;6.794;2022-07-24T03:20:56;101423.00;;;18.50
5571;BMP180;2808;51.240;6.794;2022-07-24T03:23:26;101419.00;;;18.50
5571;BMP180;2808;51.240;6.794;2022-07-24T03:25:54;101421.00;;;18.50
5571;BMP180;2808;51.240;6.794;2022-07-24T03:28:21;101418.00;;;18.60
5571;BMP180;2808;51.240;6.794;2022-07-24T03:30:49;101418.00;;;18.60
5571;BMP180;2808;51.240;6.794;2022-07-24T03:33:16;101424.00;;;18.60
5571;BMP180;2808;51.240;6.794;2022-07-24T03:35:44;101429.00;;;18.60
5571;BMP180;2808;51.240;6.794;2022-07-24T03:38:11;101435.00;;;18.60
5571;BMP180;2808;51.240;6.794;2022-07-24T03:40:40;101432.00;;;18.60
5571;BMP180;2808;51.240;6.794;2022-07-24T03:43:08;101429.00;;;18.60
5571;BMP180;2808;51.240;6.794;2022-07-24T03:45:41;101438.00;;;18.60
5571;BMP180;2808;51.240;6.794;2022-07-24T03:48:10;101435.00;;;18.60
5571;BMP180;2808;51.240;6.794;2022-07-24T03:50:37;101432.00;;;18.60
5571;BMP180;2808;51.240;6.794;2022-07-24T03:53:07;101435.00;;;18.60
5571;BMP180;2808;51.240;6.794;2022-07-24T03:55:34;101439.00;;;18.60
5571;BMP180;2808;51.240;6.794;2022-07-24T03:58:04;101445.00;;;18.70
5571;BMP180;2808;51.240;6.794;2022-07-24T04:00:34;101440.00;;;18.70
5571;BMP180;2808;51.240;6.794;2022-07-24T04:03:02;101440.00;;;18.70
5571;BMP180;2808;51.240;6.794;2022-07-24T04:05:29;101441.00;;;18.80
5571;BMP180;2808;51.240;6.794;2022-07-24T04:07:58;101444.00;;;18.80
5571;BMP180;2808;51.240;6.794;2022-07-24T04:10:26;101444.00;;;18.80
5571;BMP180;2808;51.240;6.794;2022-07-24T04:12:56;101445.00;;;18.90
5571;BMP180;2808;51.240;6.794;2022-07-24T04:15:25;101442.00;;;18.90
5571;BMP180;2808;51.240;6.794;2022-07-24T04:17:53;101442.00;;;18.90
5571;BMP180;2808;51.240;6.794;2022-07-24T04:20:20;101441.00;;;19.00
5571;BMP180;2808;51.240;6.794;2022-07-24T04:22:48;101442.00;;;19.00
5571;BMP180;2808;51.240;6.794;2022-07-24T04:25:15;101440.00;;;19.10
5571;BMP180;2808;51.240;6.794;2022-07-24T04:27:46;101438.00;;;19.20
5571;BMP180;2808;51.240;6.794;2022-07-24T04:30:14;101438.00;;;19.10
5571;BMP180;2808;51.240;6.794;2022-07-24T04:32:43;101443.00;;;19.10
5571;BMP180;2808;51.240;6.794;2022-07-24T04:35:10;101439.00;;;19.20
5571;BMP180;2808;51.240;6.794;2022-07-24T04:37:38;101439.00;;;19.20
5571;BMP180;2808;51.240;6.794;2022-07-24T04:40:06;101447.00;;;19.40
5571;BMP180;2808;51.240;6.794;2022-07-24T04:42:34;101438.00;;;19.50
5571;BMP180;2808;51.240;6.794;2022-07-24T04:45:02;101432.00;;;19.80
5571;BMP180;2808;51.240;6.794;2022-07-24T04:47:29;101425.00;;;20.00
5571;BMP180;2808;51.240;6.794;2022-07-24T04:50:00;101429.00;;;20.20
5571;BMP180;2808;51.240;6.794;2022-07-24T04:52:30;101428.00;;;20.40
5571;BMP180;2808;51.240;6.794;2022-07-24T04:54:59;101429.00;;;20.50
5571;BMP180;2808;51.240;6.794;2022-07-24T04:57:26;101422.00;;;20.70
5571;BMP180;2808;51.240;6.794;2022-07-24T04:59:54;101428.00;;;20.70
5571;BMP180;2808;51.240;6.794;2022-07-24T05:02:21;101426.00;;;20.90
5571;BMP180;2808;51.240;6.794;2022-07-24T05:04:49;101423.00;;;21.20
5571;BMP180;2808;51.240;6.794;2022-07-24T05:07:19;101423.00;;;21.20
5571;BMP180;2808;51.240;6.794;2022-07-24T05:09:46;101424.00;;;21.50
5571;BMP180;2808;51.240;6.794;2022-07-24T05:12:14;101424.00;;;21.60
5571;BMP180;2808;51.240;6.794;2022-07-24T05:14:42;101424.00;;;21.80
5571;BMP180;2808;51.240;6.794;2022-07-24T05:17:09;101421.00;;;22.00
5571;BMP180;2808;51.240;6.794;2022-07-24T05:19:37;101428.00;;;22.50
5571;BMP180;2808;51.240;6.794;2022-07-24T05:22:04;101420.00;;;23.00
5571;BMP180;2808;51.240;6.794;2022-07-24T05:24:33;101425.00;;;23.30
5571;BMP180;2808;51.240;6.794;2022-07-24T05:27:01;101422.00;;;23.50
5571;BMP180;2808;51.240;6.794;2022-07-24T05:29:28;101422.00;;;24.00
5571;BMP180;2808;51.240;6.794;2022-07-24T05:31:56;101431.00;;;24.30
5571;BMP180;2808;51.240;6.794;2022-07-24T05:34:24;101434.00;;;24.70
5571;BMP180;2808;51.240;6.794;2022-07-24T05:36:55;101444.00;;;25.20
5571;BMP180;2808;51.240;6.794;2022-07-24T05:39:23;101457.00;;;25.40
5571;BMP180;2808;51.240;6.794;2022-07-24T05:41:52;101465.00;;;25.30
5571;BMP180;2808;51.240;6.794;2022-07-24T05:44:20;101466.00;;;25.20
5571;BMP180;2808;51.240;6.794;2022-07-24T05:46:53;101461.00;;;25.20
5571;BMP180;2808;51.240;6.794;2022-07-24T05:49:20;101458.00;;;25.50
5571;BMP180;2808;51.240;6.794;2022-07-24T05:51:48;101452.00;;;25.60
5571;BMP180;2808;51.240;6.794;2022-07-24T05:54:15;101465.00;;;25.70
5571;BMP180;2808;51.240;6.794;2022-07-24T05:56:43;101468.00;;;25.70
5571;BMP180;2808;51.240;6.794;2022-07-24T05:59:12;101470.00;;;25.70
5571;BMP180;2808;51.240;6.794;2022-07-24T06:01:40;101463.00;;;25.80
5571;BMP180;2808;51.240;6.794;2022-07-24T06:04:07;101458.00;;;26.00
5571;BMP180;2808;51.240;6.794;2022-07-24T06:06:35;101480.00;;;26.20
5571;BMP180;2808;51.240;6.794;2022-07-24T06:09:03;101470.00;;;26.30
5571;BMP180;2808;51.240;6.794;2022-07-24T06:11:31;101475.00;;;26.30
5571;BMP180;2808;51.240;6.794;2022-07-24T06:14:00;101477.00;;;26.30
5571;BMP180;2808;51.240;6.794;2022-07-24T06:16:32;101472.00;;;26.20
5571;BMP180;2808;51.240;6.794;2022-07-24T06:18:59;101481.00;;;26.30
5571;BMP180;2808;51.240;6.794;2022-07-24T06:21:26;101475.00;;;26.30
5571;BMP180;2808;51.240;6.794;2022-07-24T06:23:54;101474.00;;;26.50
5571;BMP180;2808;51.240;6.794;2022-07-24T06:26:21;101472.00;;;26.70
5571;BMP180;2808;51.240;6.794;2022-07-24T06:28:49;101470.00;;;27.00
5571;BMP180;2808;51.240;6.794;2022-07-24T06:31:16;101465.00;;;27.10
5571;BMP180;2808;51.240;6.794;2022-07-24T06:33:45;101466.00;;;27.30
5571;BMP180;2808;51.240;6.794;2022-07-24T06:36:13;101457.00;;;27.40
5571;BMP180;2808;51.240;6.794;2022-07-24T06:38:41;101465.00;;;27.60
5571;BMP180;2808;51.240;6.794;2022-07-24T06:41:10;101465.00;;;27.70
5571;BMP180;2808;51.240;6.794;2022-07-24T06:43:38;101466.00;;;27.80
5571;BMP180;2808;51.240;6.794;2022-07-24T06:46:05;101467.00;;;28.00
5571;BMP180;2808;51.240;6.794;2022-07-24T06:48:33;101470.00;;;28.20
5571;BMP180;2808;51.240;6.794;2022-07-24T06:51:06;101463.00;;;28.40
5571;BMP180;2808;51.240;6.794;2022-07-24T06:53:35;101463.00;;;28.40
5571;BMP180;2808;51.240;6.794;2022-07-24T06:56:07;101462.00;;;28.60
5571;BMP180;2808;51.240;6.794;2022-07-24T06:58:36;101468.00;;;28.60
5571;BMP180;2808;51.240;6.794;2022-07-24T07:01:06;101465.00;;;28.30
5571;BMP180;2808;51.240;6.794;2022-07-24T07:03:33;101461.00;;;28.50
5571;BMP180;2808;51.240;6.794;2022-07-24T07:06:01;101456.00;;;28.40
5571;BMP180;2808;51.240;6.794;2022-07-24T07:08:33;101456.00;;;28.60
5571;BMP180;2808;51.240;6.794;2022-07-24T07:11:00;101459.00;;;28.70
5571;BMP180;2808;51.240;6.794;2022-07-24T07:13:28;101465.00;;;28.80
5571;BMP180;2808;51.240;6.794;2022-07-24T07:15:56;101472.00;;;28.90
5571;BMP180;2808;51.240;6.794;2022-07-24T07:18:23;101474.00;;;28.80
5571;BMP180;2808;51.240;6.794;2022-07-24T07:20:51;101467.00;;;28.50
5571;BMP180;2808;51.240;6.794;2022-07-24T07:23:21;101471.00;;;28.70
5571;BMP180;2808;51.240;6.794;2022-07-24T07:25:50;101472.00;;;28.90
5571;BMP180;2808;51.240;6.794;2022-07-24T07:28:18;101477.00;;;29.20
5571;BMP180;2808;51.240;6.794;2022-07-24T07:30:45;101469.00;;;29.00
5571;BMP180;2808;51.240;6.794;2022-07-24T07:33:13;101474.00;;;29.00
5571;BMP180;2808;51.240;6.794;2022-07-24T07:35:40;101476.00;;;29.10
5571;BMP180;2808;51.240;6.794;2022-07-24T07:38:13;101467.00;;;28.90
5571;BMP180;2808;51.240;6.794;2022-07-24T07:40:40;101468.00;;;28.90
5571;BMP180;2808;51.240;6.794;2022-07-24T07:43:09;101478.00;;;28.90
5571;BMP180;2808;51.240;6.794;2022-07-24T07:45:37;101480.00;;;29.10
5571;BMP180;2808;51.240;6.794;2022-07-24T07:48:05;101480.00;;;29.10
5571;BMP180;2808;51.240;6.794;2022-07-24T07:50:35;101481.00;;;29.10
5571;BMP180;2808;51.240;6.794;2022-07-24T07:53:03;101476.00;;;29.10
5571;BMP180;2808;51.240;6.794;2022-07-24T07:55:33;101484.00;;;29.40
5571;BMP180;2808;51.240;6.794;2022-07-24T07:58:01;101480.00;;;29.30
5571;BMP180;2808;51.240;6.794;2022-07-24T08:00:31;101481.00;;;29.20
5571;BMP180;2808;51.240;6.794;2022-07-24T08:03:01;101489.00;;;29.20
5571;BMP180;2808;51.240;6.794;2022-07-24T08:05:29;101480.00;;;29.30
5571;BMP180;2808;51.240;6.794;2022-07-24T08:07:57;101478.00;;;29.30
5571;BMP180;2808;51.240;6.794;2022-07-24T08:10:28;101471.00;;;29.30
5571;BMP180;2808;51.240;6.794;2022-07-24T08:12:55;101479.00;;;29.10
5571;BMP180;2808;51.240;6.794;2022-07-24T08:15:23;101461.00;;;29.10
5571;BMP180;2808;51.240;6.794;2022-07-24T08:17:55;101468.00;;;29.00
5571;BMP180;2808;51.240;6.794;2022-07-24T08:20:26;101470.00;;;29.30
5571;BMP180;2808;51.240;6.794;2022-07-24T08:22:54;101464.00;;;29.40
5571;BMP180;2808;51.240;6.794;2022-07-24T08:25:25;101456.00;;;29.60
5571;BMP180;2808;51.240;6.794;2022-07-24T08:27:53;101465.00;;;29.70
5571;BMP180;2808;51.240;6.794;2022-07-24T08:30:20;101458.00;;;29.60
5571;BMP180;2808;51.240;6.794;2022-07-24T08:32:49;101464.00;;;29.20
5571;BMP180;2808;51.240;6.794;2022-07-24T08:35:18;101456.00;;;29.30
5571;BMP180;2808;51.240;6.794;2022-07-24T08:37:46;101455.00;;;29.40
5571;BMP180;2808;51.240;6.794;2022-07-24T08:40:15;101448.00;;;29.30
5571;BMP180;2808;51.240;6.794;2022-07-24T08:42:46;101457.00;;;29.10
5571;BMP180;2808;51.240;6.794;2022-07-24T08:45:13;101456.00;;;29.00
5571;BMP180;2808;51.240;6.794;2022-07-24T08:47:45;101457.00;;;29.20
5571;BMP180;2808;51.240;6.794;2022-07-24T08:50:13;101462.00;;;29.30
5571;BMP180;2808;51.240;6.794;2022-07-24T08:52:42;101454.00;;;29.60
5571;BMP180;2808;51.240;6.794;2022-07-24T08:55:11;101450.00;;;29.60
5571;BMP180;2808;51.240;6.794;2022-07-24T08:57:38;101447.00;;;29.40
5571;BMP180;2808;51.240;6.794;2022-07-24T09:00:07;101445.00;;;29.60
5571;BMP180;2808;51.240;6.794;2022-07-24T09:02:37;101432.00;;;29.50
5571;BMP180;2808;51.240;6.794;2022-07-24T09:05:05;101431.00;;;29.40
5571;BMP180;2808;51.240;6.794;2022-07-24T09:07:33;101432.00;;;29.30
5571;BMP180;2808;51.240;6.794;2022-07-24T09:10:05;101434.00;;;29.20
5571;BMP180;2808;51.240;6.794;2022-07-24T09:12:35;101427.00;;;29.10
5571;BMP180;2808;51.240;6.794;2022-07-24T09:15:12;101423.00;;;29.10
5571;BMP180;2808;51.240;6.794;2022-07-24T09:17:49;101429.00;;;29.10
5571;BMP180;2808;51.240;6.794;2022-07-24T09:20:16;101414.00;;;28.90
5571;BMP180;2808;51.240;6.794;2022-07-24T09:22:44;101417.00;;;29.00
5571;BMP180;2808;51.240;6.794;2022-07-24T09:25:16;101411.00;;;29.10
5571;BMP180;2808;51.240;6.794;2022-07-24T09:27:51;101409.00;;;29.10
5571;BMP180;2808;51.240;6.794;2022-07-24T09:30:24;101414.00;;;29.10
5571;BMP180;2808;51.240;6.794;2022-07-24T09:32:53;101408.00;;;29.30
5571;BMP180;2808;51.240;6.794;2022-07-24T09:35:23;101407.00;;;29.50
5571;BMP180;2808;51.240;6.794;2022-07-24T09:38:04;101398.00;;;29.80
5571;BMP180;2808;51.240;6.794;2022-07-24T09:40:36;101399.00;;;29.70
5571;BMP180;2808;51.240;6.794;2022-07-24T09:43:16;101393.00;;;29.60
5571;BMP180;2808;51.240;6.794;2022-07-24T09:45:57;101403.00;;;29.70
5571;BMP180;2808;51.240;6.794;2022-07-24T09:48:29;101403.00;;;29.70
5571;BMP180;2808;51.240;6.794;2022-07-24T09:51:00;101404.00;;;30.00
5571;BMP180;2808;51.240;6.794;2022-07-24T09:53:30;101401.00;;;30.10
5571;BMP180;2808;51.240;6.794;2022-07-24T09:56:01;101394.00;;;29.90
5571;BMP180;2808;51.240;6.794;2022-07-24T09:58:31;101395.00;;;29.80
5571;BMP180;2808;51.240;6.794;2022-07-24T10:00:59;101395.00;;;29.70
5571;BMP180;2808;51.240;6.794;2022-07-24T10:03:32;101392.00;;;29.60
5571;BMP180;2808;51.240;6.794;2022-07-24T10:06:06;101397.00;;;29.40
5571;BMP180;2808;51.240;6.794;2022-07-24T10:08:36;101387.00;;;29.30
5571;BMP180;2808;51.240;6.794;2022-07-24T10:11:06;101380.00;;;29.00
5571;BMP180;2808;51.240;6.794;2022-07-24T10:13:34;101386.00;;;29.00
5571;BMP180;2808;51.240;6.794;2022-07-24T10:19:04;101375.00;;;28.90
5571;BMP180;2808;51.240;6.794;2022-07-24T10:21:34;101371.00;;;28.90
5571;BMP180;2808;51.240;6.794;2022-07-24T10:24:30;101377.00;;;28.90
5571;BMP180;2808;51.240;6.794;2022-07-24T10:27:31;101372.00;;;29.20
5571;BMP180;2808;51.240;6.794;2022-07-24T10:30:10;101372.00;;;29.20
5571;BMP180;2808;51.240;6.794;2022-07-24T10:32:47;101373.00;;;29.00
5571;BMP180;2808;51.240;6.794;2022-07-24T10:35:24;101363.00;;;28.90
5571;BMP180;2808;51.240;6.794;2022-07-24T10:38:12;101367.00;;;29.10
5571;BMP180;2808;51.240;6.794;2022-07-24T10:40:59;101366.00;;;29.00
5571;BMP180;2808;51.240;6.794;2022-07-24T10:43:39;101368.00;;;29.00
5571;BMP180;2808;51.240;6.794;2022-07-24T10:46:15;101363.00;;;29.20
5571;BMP180;2808;51.240;6.794;2022-07-24T10:49:07;101346.00;;;29.00
5571;BMP180;2808;51.240;6.794;2022-07-24T10:55:25;101349.00;;;29.10
5571;BMP180;2808;51.240;6.794;2022-07-24T10:57:57;101343.00;;;29.30
5571;BMP180;2808;51.240;6.794;2022-07-24T11:00:31;101334.00;;;29.30
5571;BMP180;2808;51.240;6.794;2022-07-24T11:03:18;101333.00;;;29.70
5571;BMP180;2808;51.240;6.794;2022-07-24T11:06:06;101336.00;;;29.80
5571;BMP180;2808;51.240;6.794;2022-07-24T11:08:40;101334.00;;;30.00
5571;BMP180;2808;51.240;6.794;2022-07-24T11:11:32;101329.00;;;30.20
5571;BMP180;2808;51.240;6.794;2022-07-24T11:14:02;101326.00;;;30.10
5571;BMP180;2808;51.240;6.794;2022-07-24T11:20:07;101333.00;;;29.90
5571;BMP180;2808;51.240;6.794;2022-07-24T11:23:55;101327.00;;;30.00
5571;BMP180;2808;51.240;6.794;2022-07-24T11:26:54;101322.00;;;30.10
5571;BMP180;2808;51.240;6.794;2022-07-24T11:29:40;101319.00;;;30.20
5571;BMP180;2808;51.240;6.794;2022-07-24T11:32:58;101318.00;;;30.20
5571;BMP180;2808;51.240;6.794;2022-07-24T11:45:55;101295.00;;;29.80
5571;BMP180;2808;51.240;6.794;2022-07-24T11:48:26;101294.00;;;29.80
5571;BMP180;2808;51.240;6.794;2022-07-24T11:51:16;101290.00;;;29.80
5571;BMP180;2808;51.240;6.794;2022-07-24T11:53:47;101290.00;;;29.80
5571;BMP180;2808;51.240;6.794;2022-07-24T11:56:19;101289.00;;;29.80
5571;BMP180;2808;51.240;6.794;2022-07-24T11:59:00;101286.00;;;29.70
5571;BMP180;2808;51.240;6.794;2022-07-24T12:01:34;101280.00;;;29.80
5571;BMP180;2808;51.240;6.794;2022-07-24T12:04:03;101284.00;;;29.70
5571;BMP180;2808;51.240;6.794;2022-07-24T12:07:07;101285.00;;;29.70
5571;BMP180;2808;51.240;6.794;2022-07-24T12:09:49;101278.00;;;29.80
5571;BMP180;2808;51.240;6.794;2022-07-24T12:12:24;101276.00;;;29.80
5571;BMP180;2808;51.240;6.794;2022-07-24T12:15:04;101284.00;;;29.80
5571;BMP180;2808;51.240;6.794;2022-07-24T12:17:57;101275.00;;;29.90
5571;BMP180;2808;51.240;6.794;2022-07-24T12:20:48;101272.00;;;29.90
5571;BMP180;2808;51.240;6.794;2022-07-24T12:23:50;101273.00;;;29.80
5571;BMP180;2808;51.240;6.794;2022-07-24T12:29:28;101255.00;;;29.60
5571;BMP180;2808;51.240;6.794;2022-07-24T12:32:30;101265.00;;;29.70
5571;BMP180;2808;51.240;6.794;2022-07-24T12:35:53;101260.00;;;29.80
5571;BMP180;2808;51.240;6.794;2022-07-24T12:38:07;101251.00;;;29.70
5571;BMP180;2808;51.240;6.794;2022-07-24T12:44:04;101240.00;;;29.70
5571;BMP180;2808;51.240;6.794;2022-07-24T12:47:02;101238.00;;;29.60
5571;BMP180;2808;51.240;6.794;2022-07-24T12:53:12;101232.00;;;29.60
5571;BMP180;2808;51.240;6.794;2022-07-24T12:56:16;101231.00;;;29.60
5571;BMP180;2808;51.240;6.794;2022-07-24T13:05:37;101217.00;;;29.40
5571;BMP180;2808;51.240;6.794;2022-07-24T13:11:06;101223.00;;;29.50
5571;BMP180;2808;51.240;6.794;2022-07-24T13:14:22;101210.00;;;29.60
5571;BMP180;2808;51.240;6.794;2022-07-24T13:17:13;101207.00;;;29.50
5571;BMP180;2808;51.240;6.794;2022-07-24T13:20:06;101196.00;;;29.60
5571;BMP180;2808;51.240;6.794;2022-07-24T13:23:13;101189.00;;;29.70
5571;BMP180;2808;51.240;6.794;2022-07-24T13:25:57;101188.00;;;29.80
5571;BMP180;2808;51.240;6.794;2022-07-24T13:28:37;101185.00;;;29.80
5571;BMP180;2808;51.240;6.794;2022-07-24T13:37:09;101182.00;;;30.00
5571;BMP180;2808;51.240;6.794;2022-07-24T13:42:43;101173.00;;;30.00
5571;BMP180;2808;51.240;6.794;2022-07-24T13:45:18;101177.00;;;30.00
5571;BMP180;2808;51.240;6.794;2022-07-24T13:47:49;101178.00;;;30.00
5571;BMP180;2808;51.240;6.794;2022-07-24T13:53:44;101168.00;;;29.90
5571;BMP180;2808;51.240;6.794;2022-07-24T13:56:54;101169.00;;;29.80
5571;BMP180;2808;51.240;6.794;2022-07-24T13:59:43;101161.00;;;29.80
5571;BMP180;2808;51.240;6.794;2022-07-24T14:09:36;101134.00;;;29.70
5571;BMP180;2808;51.240;6.794;2022-07-24T14:12:56;101137.00;;;29.70
5571;BMP180;2808;51.240;6.794;2022-07-24T14:15:43;101139.00;;;29.70
5571;BMP180;2808;51.240;6.794;2022-07-24T14:18:38;101129.00;;;29.70
5571;BMP180;2808;51.240;6.794;2022-07-24T14:24:40;101118.00;;;29.80
5571;BMP180;2808;51.240;6.794;2022-07-24T14:31:17;101108.00;;;30.00
5571;BMP180;2808;51.240;6.794;2022-07-24T14:33:57;101099.00;;;29.90
5571;BMP180;2808;51.240;6.794;2022-07-24T14:36:46;101102.00;;;29.80
5571;BMP180;2808;51.240;6.794;2022-07-24T14:39:21;101086.00;;;29.70
5571;BMP180;2808;51.240;6.794;2022-07-24T14:45:25;101077.00;;;29.80
5571;BMP180;2808;51.240;6.794;2022-07-24T14:51:01;101073.00;;;29.90
5571;BMP180;2808;51.240;6.794;2022-07-24T14:53:47;101062.00;;;29.90
5571;BMP180;2808;51.240;6.794;2022-07-24T14:56:18;101072.00;;;29.90
5571;BMP180;2808;51.240;6.794;2022-07-24T14:58:48;101069.00;;;30.00
5571;BMP180;2808;51.240;6.794;2022-07-24T15:01:28;101059.00;;;30.00
5571;BMP180;2808;51.240;6.794;2022-07-24T15:04:08;101058.00;;;30.00
5571;BMP180;2808;51.240;6.794;2022-07-24T15:06:51;101057.00;;;30.00
5571;BMP180;2808;51.240;6.794;2022-07-24T15:09:29;101053.00;;;29.90
5571;BMP180;2808;51.240;6.794;2022-07-24T15:15:41;101041.00;;;30.00
5571;BMP180;2808;51.240;6.794;2022-07-24T15:22:07;101042.00;;;30.10
5571;BMP180;2808;51.240;6.794;2022-07-24T15:24:40;101034.00;;;30.10
5571;BMP180;2808;51.240;6.794;2022-07-24T15:27:30;101027.00;;;30.10
5571;BMP180;2808;51.240;6.794;2022-07-24T15:30:09;101030.00;;;30.00
5571;BMP180;2808;51.240;6.794;2022-07-24T15:33:14;101022.00;;;30.00
5571;BMP180;2808;51.240;6.794;2022-07-24T15:35:47;101013.00;;;30.00
5571;BMP180;2808;51.240;6.794;2022-07-24T15:38:45;101015.00;;;30.00
5571;BMP180;2808;51.240;6.794;2022-07-24T15:41:25;101004.00;;;29.90
5571;BMP180;2808;51.240;6.794;2022-07-24T15:44:00;101000.00;;;29.90
5571;BMP180;2808;51.240;6.794;2022-07-24T15:47:00;101002.00;;;30.00
5571;BMP180;2808;51.240;6.794;2022-07-24T15:49:50;100995.00;;;30.00
5571;BMP180;2808;51.240;6.794;2022-07-24T15:54:43;100997.00;;;30.00
5571;BMP180;2808;51.240;6.794;2022-07-24T15:55:46;100992.00;;;30.00
5571;BMP180;2808;51.240;6.794;2022-07-24T15:58:29;100982.00;;;30.10
5571;BMP180;2808;51.240;6.794;2022-07-24T16:01:17;100979.00;;;30.10
5571;BMP180;2808;51.240;6.794;2022-07-24T16:03:57;100980.00;;;30.00
5571;BMP180;2808;51.240;6.794;2022-07-24T16:06:51;100980.00;;;30.00
5571;BMP180;2808;51.240;6.794;2022-07-24T16:09:50;100980.00;;;30.00
5571;BMP180;2808;51.240;6.794;2022-07-24T16:12:49;100973.00;;;29.90
5571;BMP180;2808;51.240;6.794;2022-07-24T16:15:19;100972.00;;;30.00
5571;BMP180;2808;51.240;6.794;2022-07-24T16:17:57;100968.00;;;30.00